Airfield :







YOU CAN JOIN US ON...

 
LOGIN :

Register | Disclaimer

   EN    FR    IT 

 









Legend :    VFR   Marginal VFR   IFR   Intensive IFR   Very Intensive IFR
Visi :
Ceiling :
>= 8 km
>= 3000ft
5 to 8 km
1000 to 3000 ft
1500m to 5 km
500 to 1000 ft
800 to 1500m
200 to 500 ft
< 800m
< 200 ft
Symbols :   Thunderstorms  Fog  Heavy snow  Heavy precipitations  Wind > 20 kt






- Airport Elevation : 603 ft
- IATA code : LEB


KLEB - Lebanon Municipal

CURRENT METAR :
  • 291453Z 34009KT 10SM CLR M02/M11 A3006 RMK AO2 SLP188 T10221111 51018

EXPIRED METARs :
  • 291353Z 32005KT 10SM CLR M03/M11 A3004 RMK AO2 SLP184 T10331106
  • 291253Z 34006KT 10SM CLR M05/M11 A3002 RMK AO2 SLP178 T10501106

TAF KLEB
Valid from the 29 at 12:00 until the 30 at 12:00 UTC


291120Z 2912/3012 34006KT P6SM SCT025



MET'MAP, your aeronautical weather chart ! - Copyright ORBIFLY December 2007 - Disclaimer

ORBIFLY MET'MAP TEAM :

Programming & Development : Alexandra Zaïnal
Concept & original design : Baudouin d'Aumeries
Assistance for programming : Marc-Olivier Méhu
Technical & hardware support : Manuel Goepfert

Contact : metmap@orbifly.com




SOURCES & CREDITS :

   NOAA